createdAt,value
2018-06-13T00:01:42.734Z,8.67
2018-06-13T00:05:15.997Z,9.60
2018-06-13T00:08:49.244Z,9.67
2018-06-13T00:12:22.483Z,9.10
2018-06-13T00:15:55.727Z,8.83
2018-06-13T00:19:28.958Z,8.93
2018-06-13T00:23:02.220Z,9.20
2018-06-13T00:26:35.451Z,9.13
2018-06-13T00:30:08.691Z,8.27
2018-06-13T00:33:41.964Z,9.93
2018-06-13T00:37:15.219Z,9.40
2018-06-13T00:40:48.462Z,9.80
2018-06-13T00:44:21.684Z,8.57
2018-06-13T00:47:54.914Z,9.03
2018-06-13T00:51:28.144Z,9.27
2018-06-13T00:55:01.367Z,8.20
2018-06-13T00:58:34.589Z,9.17
2018-06-13T01:02:07.844Z,8.53
2018-06-13T01:05:41.080Z,9.43
2018-06-13T01:09:14.329Z,8.33
2018-06-13T01:12:47.577Z,8.50
2018-06-13T01:16:20.830Z,8.63
2018-06-13T01:19:53.791Z,8.20
2018-06-13T01:23:27.046Z,7.07
2018-06-13T01:27:00.282Z,8.43
2018-06-13T01:30:33.534Z,8.10
2018-06-13T01:34:06.764Z,7.80
2018-06-13T01:37:39.752Z,7.80
2018-06-13T01:41:12.973Z,7.43
2018-06-13T01:44:46.194Z,7.40
2018-06-13T01:48:19.453Z,8.10
2018-06-13T01:51:52.663Z,8.63
2018-06-13T01:55:25.899Z,7.33
2018-06-13T01:58:59.143Z,7.20
2018-06-13T02:02:32.366Z,7.10
2018-06-13T02:06:05.583Z,7.10
2018-06-13T02:09:38.875Z,7.60
2018-06-13T02:13:12.107Z,7.27
2018-06-13T02:16:45.112Z,8.23
2018-06-13T02:20:18.334Z,8.40
2018-06-13T02:23:51.576Z,8.10
2018-06-13T02:27:24.879Z,8.13
2018-06-13T02:30:58.040Z,7.67
2018-06-13T02:34:31.274Z,8.00
2018-06-13T02:38:04.511Z,7.87
2018-06-13T02:41:37.777Z,8.00
2018-06-13T02:45:10.997Z,7.07
2018-06-13T02:48:44.231Z,8.80
2018-06-13T02:52:17.461Z,6.90
2018-06-13T02:55:50.708Z,7.47
2018-06-13T02:59:23.947Z,7.40
2018-06-13T03:02:57.187Z,6.87
2018-06-13T03:06:30.167Z,6.80
2018-06-13T03:10:03.432Z,7.03
2018-06-13T03:13:36.698Z,6.57
2018-06-13T03:17:09.948Z,6.93
2018-06-13T03:20:43.183Z,6.67
2018-06-13T03:24:16.411Z,6.73
2018-06-13T03:27:49.664Z,6.40
2018-06-13T03:31:22.902Z,6.53
2018-06-13T03:34:56.127Z,7.03
2018-06-13T03:38:29.376Z,6.97
2018-06-13T03:42:02.618Z,6.63
2018-06-13T03:45:35.859Z,8.10
2018-06-13T03:49:09.095Z,8.00
2018-06-13T03:52:42.347Z,9.63
2018-06-13T03:56:15.592Z,8.30
2018-06-13T03:59:48.831Z,8.60
2018-06-13T04:03:22.069Z,8.73
2018-06-13T04:06:55.316Z,8.30
2018-06-13T04:10:29.733Z,8.77
2018-06-13T04:14:03.143Z,8.40
2018-06-13T04:17:36.370Z,8.00
2018-06-13T04:21:09.612Z,7.70
2018-06-13T04:24:42.586Z,7.00
2018-06-13T04:28:15.843Z,6.80
2018-06-13T04:31:49.071Z,6.33
2018-06-13T04:35:22.315Z,7.37
2018-06-13T04:38:55.547Z,7.40
2018-06-13T04:42:28.768Z,7.77
2018-06-13T04:46:01.987Z,7.97
2018-06-13T04:49:35.236Z,7.80
2018-06-13T04:53:08.496Z,8.13
2018-06-13T04:56:41.739Z,8.10
2018-06-13T05:00:15.002Z,7.40
2018-06-13T05:03:48.293Z,7.03
2018-06-13T05:07:21.579Z,7.03
2018-06-13T05:10:54.868Z,7.07
2018-06-13T05:14:28.115Z,7.30
2018-06-13T05:18:01.353Z,7.03
2018-06-13T05:21:34.584Z,7.37
2018-06-13T05:25:07.839Z,5.70
2018-06-13T05:28:41.112Z,5.53
2018-06-13T05:32:14.344Z,6.13
2018-06-13T05:35:47.668Z,5.83
2018-06-13T05:39:20.875Z,8.90
2018-06-13T05:42:54.117Z,6.63
2018-06-13T05:46:27.367Z,8.27
2018-06-13T05:50:00.617Z,8.23
2018-06-13T05:53:33.860Z,7.07
2018-06-13T05:57:07.099Z,7.23
2018-06-13T06:00:40.336Z,6.33
2018-06-13T06:04:13.576Z,5.63
2018-06-13T06:07:46.830Z,6.40
2018-06-13T06:11:20.111Z,6.90
2018-06-13T06:14:53.335Z,6.50
2018-06-13T06:18:26.583Z,7.33
2018-06-13T06:21:59.797Z,6.40
2018-06-13T06:25:32.847Z,7.10
2018-06-13T06:29:06.104Z,5.57
2018-06-13T06:32:39.358Z,5.83
2018-06-13T06:36:12.624Z,6.23
2018-06-13T06:39:45.851Z,5.90
2018-06-13T06:43:19.106Z,6.33
2018-06-13T06:46:52.333Z,6.57
2018-06-13T06:50:25.564Z,6.53
2018-06-13T06:53:58.824Z,6.80
2018-06-13T06:57:32.079Z,7.53
2018-06-13T07:01:05.300Z,6.80
2018-06-13T07:04:38.531Z,8.97
2018-06-13T07:08:11.759Z,8.30
2018-06-13T07:11:44.984Z,10.37
2018-06-13T07:15:17.974Z,9.50
2018-06-13T07:18:50.982Z,12.00
2018-06-13T07:22:24.225Z,12.53
2018-06-13T07:25:57.465Z,11.20
2018-06-13T07:29:30.707Z,12.60
2018-06-13T07:33:03.964Z,13.20
2018-06-13T07:36:37.189Z,11.70
2018-06-13T07:40:10.423Z,12.23
2018-06-13T07:43:43.669Z,13.13
2018-06-13T07:47:16.659Z,12.70
2018-06-13T07:50:49.874Z,12.33
2018-06-13T07:54:23.123Z,12.20
2018-06-13T07:57:56.371Z,12.27
2018-06-13T08:01:29.370Z,11.53
2018-06-13T08:05:02.415Z,11.33
2018-06-13T08:08:35.747Z,11.63
2018-06-13T08:12:08.911Z,10.83
2018-06-13T08:15:42.168Z,11.30
2018-06-13T08:19:15.434Z,10.67
2018-06-13T08:22:48.738Z,10.67
2018-06-13T08:26:21.974Z,9.60
2018-06-13T08:29:55.223Z,9.03
2018-06-13T08:33:28.491Z,8.90
2018-06-13T08:37:01.699Z,9.17
2018-06-13T08:40:34.930Z,8.20
2018-06-13T08:44:08.144Z,8.30
2018-06-13T08:47:41.127Z,9.97
2018-06-13T08:51:14.340Z,7.93
2018-06-13T08:54:47.392Z,8.53
2018-06-13T08:58:20.612Z,7.90
2018-06-13T09:01:53.859Z,7.40
2018-06-13T09:05:27.091Z,6.50
2018-06-13T09:09:00.332Z,7.83
2018-06-13T09:12:33.310Z,7.57
2018-06-13T09:16:06.549Z,6.10
2018-06-13T09:19:39.803Z,6.77
2018-06-13T09:23:13.028Z,7.60
2018-06-13T09:26:46.004Z,6.60
2018-06-13T09:30:19.251Z,6.60
2018-06-13T09:33:52.512Z,7.70
2018-06-13T09:37:25.815Z,6.83
2018-06-13T09:40:59.008Z,7.30
2018-06-13T09:44:32.231Z,7.10
2018-06-13T09:48:05.512Z,7.43
2018-06-13T09:51:38.728Z,7.20
2018-06-13T09:55:11.972Z,6.53
2018-06-13T09:58:50.522Z,6.50
2018-06-13T10:02:29.255Z,6.10
2018-06-13T10:06:02.508Z,5.80
2018-06-13T10:09:35.747Z,5.77
2018-06-13T10:13:08.980Z,5.63
2018-06-13T10:16:42.243Z,7.20
2018-06-13T10:20:15.479Z,7.60
2018-06-13T10:23:48.700Z,6.87
2018-06-13T10:27:27.403Z,6.90
2018-06-13T10:31:00.653Z,5.93
2018-06-13T10:34:33.861Z,6.23
2018-06-13T10:38:07.099Z,4.63
2018-06-13T10:41:40.458Z,5.80
2018-06-13T10:45:13.689Z,5.60
2018-06-13T10:48:46.895Z,6.30
2018-06-13T10:52:20.136Z,6.10
2018-06-13T10:55:53.365Z,5.37
2018-06-13T10:59:26.609Z,5.57
2018-06-13T11:02:59.618Z,6.40
2018-06-13T11:06:32.875Z,6.57
2018-06-13T11:10:06.091Z,7.30
2018-06-13T11:13:39.347Z,5.80
2018-06-13T11:17:12.593Z,6.30
2018-06-13T11:20:45.845Z,6.17
2018-06-13T11:24:18.872Z,5.97
2018-06-13T11:27:52.123Z,6.03
2018-06-13T11:31:25.365Z,5.73
2018-06-13T11:35:05.219Z,6.20
2018-06-13T11:38:38.464Z,5.57
2018-06-13T11:42:11.719Z,6.80
2018-06-13T11:45:44.960Z,5.80
2018-06-13T11:49:18.195Z,6.17
2018-06-13T11:52:51.434Z,5.47
2018-06-13T11:56:24.412Z,6.40
2018-06-13T11:59:57.660Z,5.40
2018-06-13T12:03:30.884Z,5.03
2018-06-13T12:07:04.148Z,5.47
2018-06-13T12:10:37.379Z,6.03
2018-06-13T12:14:10.640Z,8.77
2018-06-13T12:17:43.898Z,6.53
2018-06-13T12:21:17.126Z,6.30
2018-06-13T12:24:50.111Z,5.50
2018-06-13T12:28:23.335Z,8.07
2018-06-13T12:31:56.585Z,5.20
2018-06-13T12:35:29.831Z,5.30
2018-06-13T12:39:03.110Z,6.27
2018-06-13T12:42:36.359Z,4.87
2018-06-13T12:46:09.583Z,5.37
2018-06-13T12:49:42.831Z,6.00
2018-06-13T12:53:16.282Z,5.13
2018-06-13T12:56:49.546Z,5.30
2018-06-13T13:00:22.733Z,4.87
2018-06-13T13:03:56.189Z,5.70
2018-06-13T13:07:29.424Z,5.77
2018-06-13T13:11:02.475Z,6.03
2018-06-13T13:14:36.515Z,5.53
2018-06-13T13:18:09.746Z,5.60
2018-06-13T13:21:42.732Z,5.73
2018-06-13T13:25:15.734Z,5.90
2018-06-13T13:28:48.690Z,6.10
2018-06-13T13:32:21.933Z,4.50
2018-06-13T13:35:55.168Z,5.60
2018-06-13T13:39:28.444Z,4.90
2018-06-13T13:43:01.690Z,4.43
2018-06-13T13:46:34.916Z,4.33
2018-06-13T13:50:08.169Z,5.33
2018-06-13T13:53:41.399Z,4.50
2018-06-13T13:57:14.678Z,4.27
2018-06-13T14:00:47.933Z,4.00
2018-06-13T14:04:21.151Z,4.40
2018-06-13T14:07:54.398Z,4.20
2018-06-13T14:11:28.867Z,4.23
2018-06-13T14:15:02.111Z,4.73
2018-06-13T14:18:35.336Z,4.60
2018-06-13T14:22:08.664Z,3.97
2018-06-13T14:25:41.894Z,3.50
2018-06-13T14:29:16.003Z,4.47
2018-06-13T14:32:49.232Z,5.23
2018-06-13T14:36:22.477Z,4.83
2018-06-13T14:39:55.741Z,3.97
2018-06-13T14:43:28.995Z,4.00
2018-06-13T14:47:02.303Z,4.20
2018-06-13T14:50:35.543Z,4.23
2018-06-13T14:54:08.784Z,4.00
2018-06-13T14:57:41.995Z,3.57
2018-06-13T15:01:15.236Z,3.90
2018-06-13T15:04:48.459Z,4.43
2018-06-13T15:08:21.703Z,3.77
2018-06-13T15:11:55.959Z,3.80
2018-06-13T15:15:29.507Z,3.80
2018-06-13T15:19:02.740Z,3.50
2018-06-13T15:22:35.994Z,3.63
2018-06-13T15:26:08.999Z,3.23
2018-06-13T15:29:42.247Z,3.67
2018-06-13T15:33:18.523Z,3.93
2018-06-13T15:36:52.373Z,3.70
2018-06-13T15:40:25.659Z,5.10
2018-06-13T15:43:58.881Z,3.97
2018-06-13T15:47:32.142Z,3.40
2018-06-13T15:51:05.607Z,3.70
2018-06-13T15:54:38.841Z,3.63
2018-06-13T15:58:12.078Z,3.30
2018-06-13T16:01:45.332Z,3.40
2018-06-13T16:05:18.535Z,3.00
2018-06-13T16:08:51.754Z,3.50
2018-06-13T16:12:25.204Z,3.30
2018-06-13T16:15:58.447Z,3.03
2018-06-13T16:19:31.713Z,2.63
2018-06-13T16:23:04.949Z,3.00
2018-06-13T16:26:38.203Z,2.70
2018-06-13T16:30:11.427Z,2.77
2018-06-13T16:33:44.679Z,2.87
2018-06-13T16:37:17.753Z,2.90
2018-06-13T16:40:51.029Z,2.80
2018-06-13T16:44:24.298Z,2.53
2018-06-13T16:47:57.568Z,3.00
2018-06-13T16:51:36.209Z,3.20
2018-06-13T16:55:14.172Z,2.40
2018-06-13T16:58:47.410Z,4.17
2018-06-13T17:02:20.411Z,2.83
2018-06-13T17:05:53.631Z,2.17
2018-06-13T17:09:26.864Z,2.50
2018-06-13T17:13:00.101Z,2.70
2018-06-13T17:16:33.078Z,2.40
2018-06-13T17:20:06.389Z,2.67
2018-06-13T17:23:39.601Z,2.80
2018-06-13T17:27:12.869Z,2.43
2018-06-13T17:30:46.095Z,2.50
2018-06-13T17:34:19.339Z,3.23
2018-06-13T17:37:52.871Z,2.80
2018-06-13T17:41:26.111Z,2.53
2018-06-13T17:44:59.385Z,2.77
2018-06-13T17:48:32.604Z,2.80
2018-06-13T17:52:05.839Z,3.00
2018-06-13T17:55:39.076Z,2.97
2018-06-13T17:59:12.304Z,2.73
2018-06-13T18:02:45.536Z,2.73
2018-06-13T18:06:18.763Z,2.20
2018-06-13T18:09:52.104Z,2.60
2018-06-13T18:13:25.091Z,2.33
2018-06-13T18:16:58.329Z,3.37
2018-06-13T18:20:31.564Z,2.03
2018-06-13T18:24:04.808Z,2.50
2018-06-13T18:27:38.057Z,2.30
2018-06-13T18:31:11.295Z,2.37
2018-06-13T18:34:44.536Z,4.40
2018-06-13T18:38:17.812Z,2.00
2018-06-13T18:41:51.400Z,2.23
2018-06-13T18:45:24.675Z,2.00
2018-06-13T18:48:57.908Z,2.20
2018-06-13T18:52:31.139Z,2.43
2018-06-13T18:56:04.432Z,2.17
2018-06-13T18:59:37.670Z,3.10
2018-06-13T19:03:10.899Z,2.20
2018-06-13T19:06:44.128Z,2.60
2018-06-13T19:10:17.348Z,2.10
2018-06-13T19:13:50.563Z,2.27
2018-06-13T19:17:23.779Z,2.67
2018-06-13T19:20:56.989Z,2.90
2018-06-13T19:24:30.218Z,2.77
2018-06-13T19:28:03.427Z,2.70
2018-06-13T19:31:36.687Z,3.17
2018-06-13T19:35:09.677Z,2.57
2018-06-13T19:38:42.891Z,2.13
2018-06-13T19:42:16.144Z,2.60
2018-06-13T19:45:49.452Z,2.60
2018-06-13T19:49:22.669Z,2.70
2018-06-13T19:53:01.375Z,2.57
2018-06-13T19:56:34.609Z,3.33
2018-06-13T20:00:07.596Z,2.10
2018-06-13T20:03:46.259Z,2.50
2018-06-13T20:07:19.480Z,2.90
2018-06-13T20:10:52.692Z,3.17
2018-06-13T20:14:31.279Z,3.03
2018-06-13T20:18:10.131Z,3.07
2018-06-13T20:21:43.352Z,3.20
2018-06-13T20:25:21.915Z,2.57
2018-06-13T20:30:02.295Z,2.53
2018-06-13T20:33:35.535Z,3.10
2018-06-13T20:37:08.784Z,3.00
2018-06-13T20:40:42.009Z,2.90
2018-06-13T20:44:15.240Z,2.80
2018-06-13T20:47:48.456Z,3.97
2018-06-13T20:51:21.740Z,4.03
2018-06-13T20:54:54.936Z,3.67
2018-06-13T20:58:28.148Z,2.80
2018-06-13T21:02:01.372Z,2.50
2018-06-13T21:05:34.607Z,3.90
2018-06-13T21:09:09.203Z,3.50
2018-06-13T21:12:42.183Z,3.20
2018-06-13T21:16:15.808Z,3.80
2018-06-13T21:19:49.061Z,3.60
2018-06-13T21:23:22.256Z,3.60
2018-06-13T21:26:55.476Z,3.33
2018-06-13T21:30:28.716Z,2.93
2018-06-13T21:34:02.685Z,3.17
2018-06-13T21:37:35.933Z,3.63
2018-06-13T21:41:09.168Z,3.70
2018-06-13T21:44:42.457Z,2.90
2018-06-13T21:48:15.681Z,3.67
2018-06-13T21:51:48.906Z,3.60
2018-06-13T21:55:22.143Z,3.20
2018-06-13T21:58:55.434Z,3.30
2018-06-13T22:02:28.647Z,3.70
2018-06-13T22:06:02.084Z,4.00
2018-06-13T22:09:35.297Z,3.37
2018-06-13T22:13:08.527Z,3.13
2018-06-13T22:16:41.760Z,3.97
2018-06-13T22:20:14.974Z,3.57
2018-06-13T22:23:48.204Z,3.90
2018-06-13T22:27:21.175Z,3.70
2018-06-13T22:30:54.475Z,3.83
2018-06-13T22:34:27.697Z,4.13
2018-06-13T22:38:00.924Z,3.87
2018-06-13T22:41:34.161Z,2.70
2018-06-13T22:45:07.392Z,2.93
2018-06-13T22:48:40.616Z,3.20
2018-06-13T22:52:13.863Z,3.23
2018-06-13T22:55:47.116Z,3.07
2018-06-13T22:59:20.322Z,3.77
2018-06-13T23:02:53.563Z,3.50
2018-06-13T23:06:26.799Z,3.90
2018-06-13T23:09:59.775Z,3.60
2018-06-13T23:13:33.017Z,3.50
2018-06-13T23:17:06.245Z,3.90
2018-06-13T23:20:40.443Z,2.90
2018-06-13T23:24:13.680Z,3.33
2018-06-13T23:27:46.882Z,3.10
2018-06-13T23:31:20.115Z,3.77
2018-06-13T23:34:53.360Z,3.73
2018-06-13T23:38:26.585Z,3.00
2018-06-13T23:41:59.800Z,3.40
2018-06-13T23:45:33.029Z,3.20
2018-06-13T23:49:06.268Z,3.30
2018-06-13T23:52:39.491Z,3.30
2018-06-13T23:56:12.707Z,4.10
2018-06-13T23:59:45.963Z,3.40
